sensor_id;sensor_type;location;lat;lon;timestamp;P1;durP1;ratioP1;P2;durP2;ratioP2
12792;SDS011;6460;42.684;23.260;2024-02-28T00:00:26;17.27;;;12.00;;
12792;SDS011;6460;42.684;23.260;2024-02-28T00:02:53;19.03;;;12.20;;
12792;SDS011;6460;42.684;23.260;2024-02-28T00:05:20;20.47;;;12.03;;
12792;SDS011;6460;42.684;23.260;2024-02-28T00:07:48;20.73;;;12.57;;
12792;SDS011;6460;42.684;23.260;2024-02-28T00:10:15;15.73;;;11.17;;
12792;SDS011;6460;42.684;23.260;2024-02-28T00:12:42;18.40;;;12.17;;
12792;SDS011;6460;42.684;23.260;2024-02-28T00:15:11;18.87;;;11.53;;
12792;SDS011;6460;42.684;23.260;2024-02-28T00:17:38;20.13;;;12.60;;
12792;SDS011;6460;42.684;23.260;2024-02-28T00:20:07;18.30;;;12.70;;
12792;SDS011;6460;42.684;23.260;2024-02-28T00:22:36;16.30;;;12.03;;
12792;SDS011;6460;42.684;23.260;2024-02-28T00:25:04;19.63;;;12.37;;
12792;SDS011;6460;42.684;23.260;2024-02-28T00:27:32;19.27;;;12.50;;
12792;SDS011;6460;42.684;23.260;2024-02-28T00:29:59;21.27;;;12.70;;
12792;SDS011;6460;42.684;23.260;2024-02-28T00:32:28;19.00;;;12.87;;
12792;SDS011;6460;42.684;23.260;2024-02-28T00:34:56;18.60;;;12.53;;
12792;SDS011;6460;42.684;23.260;2024-02-28T00:37:24;16.10;;;12.53;;
12792;SDS011;6460;42.684;23.260;2024-02-28T00:39:51;19.23;;;12.43;;
12792;SDS011;6460;42.684;23.260;2024-02-28T00:42:18;21.33;;;13.33;;
12792;SDS011;6460;42.684;23.260;2024-02-28T00:44:45;18.67;;;12.63;;
12792;SDS011;6460;42.684;23.260;2024-02-28T00:47:13;16.77;;;12.03;;
12792;SDS011;6460;42.684;23.260;2024-02-28T00:49:41;19.77;;;12.67;;
12792;SDS011;6460;42.684;23.260;2024-02-28T00:52:09;14.87;;;12.27;;
12792;SDS011;6460;42.684;23.260;2024-02-28T00:54:36;16.70;;;12.57;;
12792;SDS011;6460;42.684;23.260;2024-02-28T00:57:04;22.80;;;12.40;;
12792;SDS011;6460;42.684;23.260;2024-02-28T00:59:31;17.17;;;13.00;;
12792;SDS011;6460;42.684;23.260;2024-02-28T01:01:58;22.20;;;13.27;;
12792;SDS011;6460;42.684;23.260;2024-02-28T01:04:25;18.50;;;13.33;;
12792;SDS011;6460;42.684;23.260;2024-02-28T01:06:54;17.87;;;12.87;;
12792;SDS011;6460;42.684;23.260;2024-02-28T01:09:21;21.47;;;13.93;;
12792;SDS011;6460;42.684;23.260;2024-02-28T01:11:49;20.30;;;14.07;;
12792;SDS011;6460;42.684;23.260;2024-02-28T01:14:17;19.50;;;13.13;;
12792;SDS011;6460;42.684;23.260;2024-02-28T01:16:44;21.37;;;14.00;;
12792;SDS011;6460;42.684;23.260;2024-02-28T01:19:12;22.43;;;13.53;;
12792;SDS011;6460;42.684;23.260;2024-02-28T01:21:39;18.30;;;13.50;;
12792;SDS011;6460;42.684;23.260;2024-02-28T01:24:08;20.33;;;13.20;;
12792;SDS011;6460;42.684;23.260;2024-02-28T01:26:35;18.37;;;13.60;;
12792;SDS011;6460;42.684;23.260;2024-02-28T01:29:02;21.37;;;12.97;;
12792;SDS011;6460;42.684;23.260;2024-02-28T01:31:30;20.40;;;13.67;;
12792;SDS011;6460;42.684;23.260;2024-02-28T01:33:58;21.70;;;13.97;;
12792;SDS011;6460;42.684;23.260;2024-02-28T01:36:25;21.17;;;13.90;;
12792;SDS011;6460;42.684;23.260;2024-02-28T01:38:53;23.00;;;14.50;;
12792;SDS011;6460;42.684;23.260;2024-02-28T01:41:23;19.10;;;13.30;;
12792;SDS011;6460;42.684;23.260;2024-02-28T01:43:51;22.33;;;14.03;;
12792;SDS011;6460;42.684;23.260;2024-02-28T01:46:20;19.47;;;13.60;;
12792;SDS011;6460;42.684;23.260;2024-02-28T01:48:51;22.27;;;13.33;;
12792;SDS011;6460;42.684;23.260;2024-02-28T01:51:19;21.70;;;13.33;;
12792;SDS011;6460;42.684;23.260;2024-02-28T01:53:49;24.40;;;13.77;;
12792;SDS011;6460;42.684;23.260;2024-02-28T01:56:18;18.93;;;14.73;;
12792;SDS011;6460;42.684;23.260;2024-02-28T01:58:49;22.00;;;14.07;;
12792;SDS011;6460;42.684;23.260;2024-02-28T02:01:17;20.93;;;14.77;;
12792;SDS011;6460;42.684;23.260;2024-02-28T02:03:44;20.77;;;13.73;;
12792;SDS011;6460;42.684;23.260;2024-02-28T02:06:12;20.30;;;14.70;;
12792;SDS011;6460;42.684;23.260;2024-02-28T02:08:40;23.00;;;14.77;;
12792;SDS011;6460;42.684;23.260;2024-02-28T02:11:09;23.43;;;15.80;;
12792;SDS011;6460;42.684;23.260;2024-02-28T02:13:48;23.93;;;16.93;;
12792;SDS011;6460;42.684;23.260;2024-02-28T02:16:16;28.33;;;19.27;;
12792;SDS011;6460;42.684;23.260;2024-02-28T02:18:46;30.33;;;20.43;;
12792;SDS011;6460;42.684;23.260;2024-02-28T02:21:15;25.63;;;18.30;;
12792;SDS011;6460;42.684;23.260;2024-02-28T02:23:47;27.00;;;18.00;;
12792;SDS011;6460;42.684;23.260;2024-02-28T02:26:15;28.30;;;17.63;;
12792;SDS011;6460;42.684;23.260;2024-02-28T02:28:43;23.33;;;16.10;;
12792;SDS011;6460;42.684;23.260;2024-02-28T02:31:11;24.00;;;15.03;;
12792;SDS011;6460;42.684;23.260;2024-02-28T02:33:40;24.03;;;16.10;;
12792;SDS011;6460;42.684;23.260;2024-02-28T02:36:08;24.07;;;15.73;;
12792;SDS011;6460;42.684;23.260;2024-02-28T02:38:36;20.77;;;15.10;;
12792;SDS011;6460;42.684;23.260;2024-02-28T02:41:05;27.83;;;15.87;;
12792;SDS011;6460;42.684;23.260;2024-02-28T02:43:33;21.33;;;14.73;;
12792;SDS011;6460;42.684;23.260;2024-02-28T02:46:01;23.63;;;15.73;;
12792;SDS011;6460;42.684;23.260;2024-02-28T02:48:29;24.47;;;16.43;;
12792;SDS011;6460;42.684;23.260;2024-02-28T02:50:57;22.37;;;14.33;;
12792;SDS011;6460;42.684;23.260;2024-02-28T02:53:25;22.80;;;14.83;;
12792;SDS011;6460;42.684;23.260;2024-02-28T02:55:53;24.17;;;15.93;;
12792;SDS011;6460;42.684;23.260;2024-02-28T02:58:23;26.40;;;15.97;;
12792;SDS011;6460;42.684;23.260;2024-02-28T03:00:51;25.53;;;16.07;;
12792;SDS011;6460;42.684;23.260;2024-02-28T03:03:19;22.10;;;16.77;;
12792;SDS011;6460;42.684;23.260;2024-02-28T03:05:47;24.30;;;16.70;;
12792;SDS011;6460;42.684;23.260;2024-02-28T03:08:14;23.60;;;15.60;;
12792;SDS011;6460;42.684;23.260;2024-02-28T03:10:42;23.23;;;16.07;;
12792;SDS011;6460;42.684;23.260;2024-02-28T03:13:10;24.30;;;16.47;;
12792;SDS011;6460;42.684;23.260;2024-02-28T03:15:40;22.13;;;15.83;;
12792;SDS011;6460;42.684;23.260;2024-02-28T03:18:08;24.20;;;16.13;;
12792;SDS011;6460;42.684;23.260;2024-02-28T03:20:36;24.90;;;16.80;;
12792;SDS011;6460;42.684;23.260;2024-02-28T03:23:04;26.70;;;16.83;;
12792;SDS011;6460;42.684;23.260;2024-02-28T03:25:32;24.50;;;16.90;;
12792;SDS011;6460;42.684;23.260;2024-02-28T03:28:02;27.53;;;16.77;;
12792;SDS011;6460;42.684;23.260;2024-02-28T03:30:30;22.23;;;15.80;;
12792;SDS011;6460;42.684;23.260;2024-02-28T03:33:06;27.90;;;15.90;;
12792;SDS011;6460;42.684;23.260;2024-02-28T03:35:34;24.53;;;17.43;;
12792;SDS011;6460;42.684;23.260;2024-02-28T03:38:07;26.57;;;17.50;;
12792;SDS011;6460;42.684;23.260;2024-02-28T03:40:39;24.87;;;17.57;;
12792;SDS011;6460;42.684;23.260;2024-02-28T03:43:08;26.87;;;16.53;;
12792;SDS011;6460;42.684;23.260;2024-02-28T03:45:36;27.23;;;17.93;;
12792;SDS011;6460;42.684;23.260;2024-02-28T03:48:06;26.37;;;17.10;;
12792;SDS011;6460;42.684;23.260;2024-02-28T03:50:35;25.37;;;16.47;;
12792;SDS011;6460;42.684;23.260;2024-02-28T03:53:03;27.77;;;16.73;;
12792;SDS011;6460;42.684;23.260;2024-02-28T03:55:32;24.93;;;17.10;;
12792;SDS011;6460;42.684;23.260;2024-02-28T03:58:00;20.87;;;15.93;;
12792;SDS011;6460;42.684;23.260;2024-02-28T04:00:27;25.70;;;16.23;;
12792;SDS011;6460;42.684;23.260;2024-02-28T04:02:56;23.70;;;16.10;;
12792;SDS011;6460;42.684;23.260;2024-02-28T04:05:28;22.93;;;15.73;;
12792;SDS011;6460;42.684;23.260;2024-02-28T04:07:57;27.43;;;17.40;;
12792;SDS011;6460;42.684;23.260;2024-02-28T04:10:27;25.87;;;16.90;;
12792;SDS011;6460;42.684;23.260;2024-02-28T04:12:58;24.17;;;17.27;;
12792;SDS011;6460;42.684;23.260;2024-02-28T04:15:29;26.37;;;17.33;;
12792;SDS011;6460;42.684;23.260;2024-02-28T04:17:59;22.60;;;16.13;;
12792;SDS011;6460;42.684;23.260;2024-02-28T04:20:33;24.47;;;16.57;;
12792;SDS011;6460;42.684;23.260;2024-02-28T04:23:03;27.23;;;17.67;;
12792;SDS011;6460;42.684;23.260;2024-02-28T04:25:44;26.00;;;17.80;;
12792;SDS011;6460;42.684;23.260;2024-02-28T04:28:20;25.73;;;17.60;;
12792;SDS011;6460;42.684;23.260;2024-02-28T04:30:50;28.37;;;18.20;;
12792;SDS011;6460;42.684;23.260;2024-02-28T04:33:17;26.73;;;17.83;;
12792;SDS011;6460;42.684;23.260;2024-02-28T04:36:03;26.97;;;20.07;;
12792;SDS011;6460;42.684;23.260;2024-02-28T04:38:33;29.70;;;21.97;;
12792;SDS011;6460;42.684;23.260;2024-02-28T04:41:01;32.80;;;24.97;;
12792;SDS011;6460;42.684;23.260;2024-02-28T04:43:36;34.63;;;24.73;;
12792;SDS011;6460;42.684;23.260;2024-02-28T04:46:03;34.97;;;20.77;;
12792;SDS011;6460;42.684;23.260;2024-02-28T04:48:31;31.23;;;21.33;;
12792;SDS011;6460;42.684;23.260;2024-02-28T04:57:01;39.17;;;28.70;;
12792;SDS011;6460;42.684;23.260;2024-02-28T05:02:18;41.13;;;26.10;;
12792;SDS011;6460;42.684;23.260;2024-02-28T05:05:38;38.83;;;25.40;;
12792;SDS011;6460;42.684;23.260;2024-02-28T05:08:06;32.77;;;22.23;;
12792;SDS011;6460;42.684;23.260;2024-02-28T05:10:34;39.03;;;23.10;;
12792;SDS011;6460;42.684;23.260;2024-02-28T05:13:02;38.07;;;26.63;;
12792;SDS011;6460;42.684;23.260;2024-02-28T05:15:31;42.27;;;26.30;;
12792;SDS011;6460;42.684;23.260;2024-02-28T05:17:59;34.60;;;21.73;;
12792;SDS011;6460;42.684;23.260;2024-02-28T05:20:28;32.30;;;21.17;;
12792;SDS011;6460;42.684;23.260;2024-02-28T05:22:55;32.73;;;19.57;;
12792;SDS011;6460;42.684;23.260;2024-02-28T05:25:23;30.30;;;20.80;;
12792;SDS011;6460;42.684;23.260;2024-02-28T05:27:53;29.37;;;20.40;;
12792;SDS011;6460;42.684;23.260;2024-02-28T05:30:21;35.97;;;21.87;;
12792;SDS011;6460;42.684;23.260;2024-02-28T05:32:49;40.13;;;24.27;;
12792;SDS011;6460;42.684;23.260;2024-02-28T05:35:17;33.23;;;22.10;;
12792;SDS011;6460;42.684;23.260;2024-02-28T05:37:45;38.50;;;22.43;;
12792;SDS011;6460;42.684;23.260;2024-02-28T05:40:13;30.27;;;20.20;;
12792;SDS011;6460;42.684;23.260;2024-02-28T05:42:41;34.60;;;21.97;;
12792;SDS011;6460;42.684;23.260;2024-02-28T05:45:12;37.53;;;22.50;;
12792;SDS011;6460;42.684;23.260;2024-02-28T05:47:43;38.80;;;24.07;;
12792;SDS011;6460;42.684;23.260;2024-02-28T05:50:11;34.00;;;22.07;;
12792;SDS011;6460;42.684;23.260;2024-02-28T05:52:38;34.90;;;21.50;;
12792;SDS011;6460;42.684;23.260;2024-02-28T05:55:08;31.63;;;21.37;;
12792;SDS011;6460;42.684;23.260;2024-02-28T05:57:35;34.80;;;20.77;;
12792;SDS011;6460;42.684;23.260;2024-02-28T06:00:06;37.13;;;22.10;;
12792;SDS011;6460;42.684;23.260;2024-02-28T06:02:37;38.83;;;23.17;;
12792;SDS011;6460;42.684;23.260;2024-02-28T06:05:05;38.93;;;24.27;;
12792;SDS011;6460;42.684;23.260;2024-02-28T06:07:33;35.53;;;21.53;;
12792;SDS011;6460;42.684;23.260;2024-02-28T06:10:00;37.07;;;23.23;;
12792;SDS011;6460;42.684;23.260;2024-02-28T06:12:27;34.90;;;23.43;;
12792;SDS011;6460;42.684;23.260;2024-02-28T06:14:55;41.13;;;22.63;;
12792;SDS011;6460;42.684;23.260;2024-02-28T06:17:22;35.50;;;23.27;;
12792;SDS011;6460;42.684;23.260;2024-02-28T06:19:52;33.87;;;22.20;;
12792;SDS011;6460;42.684;23.260;2024-02-28T06:22:19;35.57;;;22.90;;
12792;SDS011;6460;42.684;23.260;2024-02-28T06:24:46;30.70;;;20.93;;
12792;SDS011;6460;42.684;23.260;2024-02-28T06:27:14;33.33;;;21.60;;
12792;SDS011;6460;42.684;23.260;2024-02-28T06:29:42;34.43;;;21.93;;
12792;SDS011;6460;42.684;23.260;2024-02-28T06:32:10;31.27;;;22.10;;
12792;SDS011;6460;42.684;23.260;2024-02-28T06:34:38;34.50;;;22.47;;
12792;SDS011;6460;42.684;23.260;2024-02-28T06:37:09;36.40;;;22.73;;
12792;SDS011;6460;42.684;23.260;2024-02-28T06:39:36;36.70;;;25.13;;
12792;SDS011;6460;42.684;23.260;2024-02-28T06:42:05;45.33;;;25.43;;
12792;SDS011;6460;42.684;23.260;2024-02-28T06:44:33;35.23;;;25.20;;
12792;SDS011;6460;42.684;23.260;2024-02-28T06:47:01;36.47;;;24.47;;
12792;SDS011;6460;42.684;23.260;2024-02-28T06:49:29;37.07;;;25.30;;
12792;SDS011;6460;42.684;23.260;2024-02-28T06:51:57;31.87;;;23.83;;
12792;SDS011;6460;42.684;23.260;2024-02-28T06:54:28;39.33;;;26.17;;
12792;SDS011;6460;42.684;23.260;2024-02-28T06:56:55;39.87;;;26.17;;
12792;SDS011;6460;42.684;23.260;2024-02-28T06:59:23;34.87;;;24.33;;
12792;SDS011;6460;42.684;23.260;2024-02-28T07:01:51;39.63;;;24.77;;
12792;SDS011;6460;42.684;23.260;2024-02-28T07:04:19;41.90;;;25.37;;
12792;SDS011;6460;42.684;23.260;2024-02-28T07:06:47;34.43;;;25.07;;
12792;SDS011;6460;42.684;23.260;2024-02-28T07:09:15;37.13;;;23.90;;
12792;SDS011;6460;42.684;23.260;2024-02-28T07:11:44;36.10;;;23.70;;
12792;SDS011;6460;42.684;23.260;2024-02-28T07:14:12;33.30;;;23.57;;
12792;SDS011;6460;42.684;23.260;2024-02-28T07:16:40;33.03;;;23.87;;
12792;SDS011;6460;42.684;23.260;2024-02-28T07:19:09;40.37;;;23.30;;
12792;SDS011;6460;42.684;23.260;2024-02-28T07:21:37;35.80;;;23.60;;
12792;SDS011;6460;42.684;23.260;2024-02-28T07:24:05;37.03;;;23.27;;
12792;SDS011;6460;42.684;23.260;2024-02-28T07:26:33;44.23;;;24.50;;
12792;SDS011;6460;42.684;23.260;2024-02-28T07:29:03;46.00;;;25.30;;
12792;SDS011;6460;42.684;23.260;2024-02-28T07:31:31;35.60;;;24.60;;
12792;SDS011;6460;42.684;23.260;2024-02-28T07:33:58;36.20;;;24.03;;
12792;SDS011;6460;42.684;23.260;2024-02-28T07:36:26;35.70;;;21.57;;
12792;SDS011;6460;42.684;23.260;2024-02-28T07:38:53;36.83;;;23.40;;
12792;SDS011;6460;42.684;23.260;2024-02-28T07:41:20;33.63;;;22.73;;
12792;SDS011;6460;42.684;23.260;2024-02-28T07:43:48;33.20;;;22.90;;
12792;SDS011;6460;42.684;23.260;2024-02-28T07:46:17;34.73;;;22.27;;
12792;SDS011;6460;42.684;23.260;2024-02-28T07:48:44;31.20;;;20.80;;
12792;SDS011;6460;42.684;23.260;2024-02-28T07:51:12;31.47;;;20.33;;
12792;SDS011;6460;42.684;23.260;2024-02-28T07:53:40;34.73;;;22.83;;
12792;SDS011;6460;42.684;23.260;2024-02-28T07:56:15;38.67;;;22.17;;
12792;SDS011;6460;42.684;23.260;2024-02-28T07:58:43;34.03;;;20.07;;
12792;SDS011;6460;42.684;23.260;2024-02-28T08:01:11;29.20;;;21.17;;
12792;SDS011;6460;42.684;23.260;2024-02-28T08:03:40;31.53;;;22.00;;
12792;SDS011;6460;42.684;23.260;2024-02-28T08:06:09;29.30;;;22.57;;
12792;SDS011;6460;42.684;23.260;2024-02-28T08:08:37;33.57;;;21.83;;
12792;SDS011;6460;42.684;23.260;2024-02-28T08:11:05;28.83;;;21.37;;
12792;SDS011;6460;42.684;23.260;2024-02-28T08:13:33;30.67;;;22.50;;
12792;SDS011;6460;42.684;23.260;2024-02-28T08:16:01;34.23;;;22.03;;
12792;SDS011;6460;42.684;23.260;2024-02-28T08:18:30;31.30;;;21.27;;
12792;SDS011;6460;42.684;23.260;2024-02-28T08:21:01;33.13;;;20.87;;
12792;SDS011;6460;42.684;23.260;2024-02-28T08:23:29;32.60;;;21.20;;
12792;SDS011;6460;42.684;23.260;2024-02-28T08:25:56;35.43;;;21.07;;
12792;SDS011;6460;42.684;23.260;2024-02-28T08:28:23;31.37;;;21.00;;
12792;SDS011;6460;42.684;23.260;2024-02-28T08:30:51;31.10;;;20.13;;
12792;SDS011;6460;42.684;23.260;2024-02-28T08:33:19;31.93;;;20.63;;
12792;SDS011;6460;42.684;23.260;2024-02-28T08:35:47;36.23;;;21.67;;
12792;SDS011;6460;42.684;23.260;2024-02-28T08:38:17;32.23;;;20.63;;
12792;SDS011;6460;42.684;23.260;2024-02-28T08:40:45;31.13;;;21.50;;
12792;SDS011;6460;42.684;23.260;2024-02-28T08:43:13;30.67;;;20.67;;
12792;SDS011;6460;42.684;23.260;2024-02-28T08:45:41;35.70;;;21.73;;
12792;SDS011;6460;42.684;23.260;2024-02-28T08:48:09;32.13;;;20.83;;
12792;SDS011;6460;42.684;23.260;2024-02-28T08:50:37;30.77;;;20.97;;
12792;SDS011;6460;42.684;23.260;2024-02-28T08:53:05;34.87;;;21.90;;
12792;SDS011;6460;42.684;23.260;2024-02-28T08:55:35;32.03;;;21.97;;
12792;SDS011;6460;42.684;23.260;2024-02-28T08:58:03;32.87;;;21.20;;
12792;SDS011;6460;42.684;23.260;2024-02-28T09:00:31;30.70;;;22.00;;
12792;SDS011;6460;42.684;23.260;2024-02-28T09:02:59;36.33;;;21.83;;
12792;SDS011;6460;42.684;23.260;2024-02-28T09:05:27;31.37;;;22.13;;
12792;SDS011;6460;42.684;23.260;2024-02-28T09:07:55;31.20;;;22.20;;
12792;SDS011;6460;42.684;23.260;2024-02-28T09:10:23;32.17;;;21.10;;
12792;SDS011;6460;42.684;23.260;2024-02-28T09:12:53;30.97;;;21.40;;
12792;SDS011;6460;42.684;23.260;2024-02-28T09:15:21;35.23;;;20.63;;
12792;SDS011;6460;42.684;23.260;2024-02-28T09:17:49;30.30;;;21.20;;
12792;SDS011;6460;42.684;23.260;2024-02-28T09:20:17;30.20;;;20.57;;
12792;SDS011;6460;42.684;23.260;2024-02-28T09:22:45;32.40;;;21.73;;
12792;SDS011;6460;42.684;23.260;2024-02-28T09:25:13;30.37;;;20.90;;
12792;SDS011;6460;42.684;23.260;2024-02-28T09:27:41;29.90;;;21.10;;
12792;SDS011;6460;42.684;23.260;2024-02-28T09:30:10;34.33;;;22.40;;
12792;SDS011;6460;42.684;23.260;2024-02-28T09:32:37;31.23;;;22.33;;
12792;SDS011;6460;42.684;23.260;2024-02-28T09:35:05;33.97;;;22.57;;
12792;SDS011;6460;42.684;23.260;2024-02-28T09:37:32;30.67;;;22.10;;
12792;SDS011;6460;42.684;23.260;2024-02-28T09:39:59;30.00;;;21.50;;
12792;SDS011;6460;42.684;23.260;2024-02-28T09:42:28;36.67;;;22.10;;
12792;SDS011;6460;42.684;23.260;2024-02-28T09:44:55;32.00;;;21.57;;
12792;SDS011;6460;42.684;23.260;2024-02-28T09:47:28;28.53;;;21.70;;
12792;SDS011;6460;42.684;23.260;2024-02-28T09:49:56;29.23;;;21.43;;
12792;SDS011;6460;42.684;23.260;2024-02-28T09:52:25;27.27;;;20.10;;
12792;SDS011;6460;42.684;23.260;2024-02-28T09:54:52;30.17;;;21.10;;
12792;SDS011;6460;42.684;23.260;2024-02-28T09:57:20;29.27;;;21.03;;
12792;SDS011;6460;42.684;23.260;2024-02-28T09:59:54;32.33;;;21.67;;
12792;SDS011;6460;42.684;23.260;2024-02-28T10:02:23;34.13;;;20.27;;
12792;SDS011;6460;42.684;23.260;2024-02-28T10:04:53;31.83;;;19.97;;
12792;SDS011;6460;42.684;23.260;2024-02-28T10:07:22;29.57;;;19.57;;
12792;SDS011;6460;42.684;23.260;2024-02-28T10:09:50;26.07;;;19.67;;
12792;SDS011;6460;42.684;23.260;2024-02-28T10:12:20;27.10;;;20.73;;
12792;SDS011;6460;42.684;23.260;2024-02-28T10:14:49;28.43;;;20.17;;
12792;SDS011;6460;42.684;23.260;2024-02-28T10:17:17;30.80;;;19.97;;
12792;SDS011;6460;42.684;23.260;2024-02-28T10:19:45;31.50;;;19.50;;
12792;SDS011;6460;42.684;23.260;2024-02-28T10:22:15;29.20;;;19.90;;
12792;SDS011;6460;42.684;23.260;2024-02-28T10:24:43;33.27;;;21.27;;
12792;SDS011;6460;42.684;23.260;2024-02-28T10:27:15;28.67;;;20.40;;
12792;SDS011;6460;42.684;23.260;2024-02-28T10:29:44;30.83;;;21.73;;
12792;SDS011;6460;42.684;23.260;2024-02-28T10:32:13;32.93;;;21.27;;
12792;SDS011;6460;42.684;23.260;2024-02-28T10:34:41;26.10;;;19.70;;
12792;SDS011;6460;42.684;23.260;2024-02-28T10:37:10;29.53;;;20.13;;
12792;SDS011;6460;42.684;23.260;2024-02-28T10:39:39;29.30;;;19.83;;
12792;SDS011;6460;42.684;23.260;2024-02-28T10:42:09;23.23;;;17.37;;
12792;SDS011;6460;42.684;23.260;2024-02-28T10:44:39;34.17;;;18.57;;
12792;SDS011;6460;42.684;23.260;2024-02-28T10:47:08;26.23;;;18.57;;
12792;SDS011;6460;42.684;23.260;2024-02-28T10:49:35;25.57;;;17.57;;
12792;SDS011;6460;42.684;23.260;2024-02-28T10:52:02;27.17;;;18.70;;
12792;SDS011;6460;42.684;23.260;2024-02-28T10:54:32;23.90;;;18.27;;
12792;SDS011;6460;42.684;23.260;2024-02-28T10:57:08;24.43;;;18.33;;
12792;SDS011;6460;42.684;23.260;2024-02-28T10:59:39;25.63;;;17.00;;
12792;SDS011;6460;42.684;23.260;2024-02-28T11:02:10;22.60;;;16.83;;
12792;SDS011;6460;42.684;23.260;2024-02-28T11:04:38;23.63;;;16.50;;
12792;SDS011;6460;42.684;23.260;2024-02-28T11:07:05;26.83;;;16.90;;
12792;SDS011;6460;42.684;23.260;2024-02-28T11:09:33;23.23;;;17.47;;
12792;SDS011;6460;42.684;23.260;2024-02-28T11:12:03;24.17;;;15.27;;
12792;SDS011;6460;42.684;23.260;2024-02-28T11:14:32;23.87;;;16.53;;
12792;SDS011;6460;42.684;23.260;2024-02-28T11:17:00;22.93;;;16.63;;
12792;SDS011;6460;42.684;23.260;2024-02-28T11:19:28;20.60;;;15.90;;
12792;SDS011;6460;42.684;23.260;2024-02-28T11:21:56;17.07;;;14.07;;
12792;SDS011;6460;42.684;23.260;2024-02-28T11:24:27;22.77;;;15.60;;
12792;SDS011;6460;42.684;23.260;2024-02-28T11:26:56;19.00;;;14.03;;
12792;SDS011;6460;42.684;23.260;2024-02-28T11:29:25;23.23;;;13.70;;
12792;SDS011;6460;42.684;23.260;2024-02-28T11:31:55;18.23;;;13.07;;
12792;SDS011;6460;42.684;23.260;2024-02-28T11:34:23;15.47;;;11.37;;
12792;SDS011;6460;42.684;23.260;2024-02-28T11:36:54;16.10;;;10.40;;
12792;SDS011;6460;42.684;23.260;2024-02-28T11:39:23;12.43;;;8.80;;
12792;SDS011;6460;42.684;23.260;2024-02-28T11:41:51;15.43;;;9.50;;
12792;SDS011;6460;42.684;23.260;2024-02-28T11:44:19;16.03;;;9.30;;
12792;SDS011;6460;42.684;23.260;2024-02-28T11:46:46;18.17;;;8.50;;
12792;SDS011;6460;42.684;23.260;2024-02-28T11:49:17;15.63;;;8.97;;
12792;SDS011;6460;42.684;23.260;2024-02-28T11:51:46;17.70;;;11.23;;
12792;SDS011;6460;42.684;23.260;2024-02-28T11:54:13;15.03;;;9.00;;
12792;SDS011;6460;42.684;23.260;2024-02-28T11:56:40;15.47;;;9.23;;
12792;SDS011;6460;42.684;23.260;2024-02-28T11:59:09;13.83;;;8.60;;
12792;SDS011;6460;42.684;23.260;2024-02-28T12:01:40;13.23;;;7.77;;
12792;SDS011;6460;42.684;23.260;2024-02-28T12:04:09;13.97;;;7.33;;
12792;SDS011;6460;42.684;23.260;2024-02-28T12:06:39;9.07;;;7.30;;
12792;SDS011;6460;42.684;23.260;2024-02-28T12:09:07;12.03;;;7.30;;
12792;SDS011;6460;42.684;23.260;2024-02-28T12:11:37;8.80;;;6.87;;
12792;SDS011;6460;42.684;23.260;2024-02-28T12:14:05;9.53;;;7.83;;
12792;SDS011;6460;42.684;23.260;2024-02-28T12:16:36;18.80;;;7.13;;
12792;SDS011;6460;42.684;23.260;2024-02-28T12:19:06;10.63;;;7.20;;
12792;SDS011;6460;42.684;23.260;2024-02-28T12:21:35;13.90;;;6.83;;
12792;SDS011;6460;42.684;23.260;2024-02-28T12:24:05;14.07;;;7.20;;
12792;SDS011;6460;42.684;23.260;2024-02-28T12:26:35;12.27;;;7.50;;
12792;SDS011;6460;42.684;23.260;2024-02-28T12:29:02;8.77;;;7.23;;
12792;SDS011;6460;42.684;23.260;2024-02-28T12:31:30;8.90;;;6.80;;
12792;SDS011;6460;42.684;23.260;2024-02-28T12:33:58;12.47;;;7.30;;
12792;SDS011;6460;42.684;23.260;2024-02-28T12:36:26;11.50;;;6.40;;
12792;SDS011;6460;42.684;23.260;2024-02-28T12:38:54;11.67;;;7.30;;
12792;SDS011;6460;42.684;23.260;2024-02-28T12:41:22;11.57;;;7.57;;
12792;SDS011;6460;42.684;23.260;2024-02-28T12:44:07;12.17;;;6.77;;
12792;SDS011;6460;42.684;23.260;2024-02-28T12:46:35;11.23;;;6.17;;
12792;SDS011;6460;42.684;23.260;2024-02-28T12:49:03;8.90;;;6.40;;
12792;SDS011;6460;42.684;23.260;2024-02-28T12:51:36;10.23;;;6.63;;
12792;SDS011;6460;42.684;23.260;2024-02-28T12:54:05;8.63;;;5.90;;
12792;SDS011;6460;42.684;23.260;2024-02-28T12:56:34;7.97;;;6.27;;
12792;SDS011;6460;42.684;23.260;2024-02-28T12:59:02;12.30;;;6.73;;
12792;SDS011;6460;42.684;23.260;2024-02-28T13:01:29;10.30;;;6.83;;
12792;SDS011;6460;42.684;23.260;2024-02-28T13:03:57;10.73;;;6.43;;
12792;SDS011;6460;42.684;23.260;2024-02-28T13:06:24;11.03;;;6.90;;
12792;SDS011;6460;42.684;23.260;2024-02-28T13:08:52;10.27;;;6.30;;
12792;SDS011;6460;42.684;23.260;2024-02-28T13:11:22;10.87;;;6.97;;
12792;SDS011;6460;42.684;23.260;2024-02-28T13:13:52;8.70;;;6.83;;
12792;SDS011;6460;42.684;23.260;2024-02-28T13:16:19;10.40;;;7.20;;
12792;SDS011;6460;42.684;23.260;2024-02-28T13:18:47;14.00;;;8.07;;
12792;SDS011;6460;42.684;23.260;2024-02-28T13:21:15;12.97;;;8.20;;
12792;SDS011;6460;42.684;23.260;2024-02-28T13:23:42;11.13;;;7.47;;
12792;SDS011;6460;42.684;23.260;2024-02-28T13:26:09;9.90;;;7.83;;
12792;SDS011;6460;42.684;23.260;2024-02-28T13:28:42;11.60;;;7.63;;
12792;SDS011;6460;42.684;23.260;2024-02-28T13:31:11;14.00;;;8.07;;
12792;SDS011;6460;42.684;23.260;2024-02-28T13:33:39;15.07;;;8.13;;
12792;SDS011;6460;42.684;23.260;2024-02-28T13:36:07;10.53;;;7.90;;
12792;SDS011;6460;42.684;23.260;2024-02-28T13:38:35;12.07;;;8.97;;
12792;SDS011;6460;42.684;23.260;2024-02-28T13:41:02;12.93;;;8.60;;
12792;SDS011;6460;42.684;23.260;2024-02-28T13:43:30;9.90;;;8.73;;
12792;SDS011;6460;42.684;23.260;2024-02-28T13:45:58;12.47;;;8.17;;
12792;SDS011;6460;42.684;23.260;2024-02-28T13:48:28;14.33;;;8.27;;
12792;SDS011;6460;42.684;23.260;2024-02-28T13:50:56;13.40;;;8.40;;
12792;SDS011;6460;42.684;23.260;2024-02-28T13:53:24;14.77;;;8.10;;
12792;SDS011;6460;42.684;23.260;2024-02-28T13:55:51;12.37;;;8.23;;
12792;SDS011;6460;42.684;23.260;2024-02-28T13:58:19;11.80;;;8.00;;
12792;SDS011;6460;42.684;23.260;2024-02-28T14:00:46;14.43;;;8.77;;
12792;SDS011;6460;42.684;23.260;2024-02-28T14:03:14;14.77;;;8.70;;
12792;SDS011;6460;42.684;23.260;2024-02-28T14:05:43;12.40;;;7.60;;
12792;SDS011;6460;42.684;23.260;2024-02-28T14:08:10;11.23;;;7.37;;
12792;SDS011;6460;42.684;23.260;2024-02-28T14:10:38;15.37;;;9.27;;
12792;SDS011;6460;42.684;23.260;2024-02-28T14:13:05;18.90;;;10.10;;
12792;SDS011;6460;42.684;23.260;2024-02-28T14:15:33;12.63;;;8.60;;
12792;SDS011;6460;42.684;23.260;2024-02-28T14:18:01;18.40;;;9.13;;
12792;SDS011;6460;42.684;23.260;2024-02-28T14:20:30;14.20;;;8.73;;
12792;SDS011;6460;42.684;23.260;2024-02-28T14:22:59;14.70;;;8.87;;
12792;SDS011;6460;42.684;23.260;2024-02-28T14:25:26;17.47;;;8.50;;
12792;SDS011;6460;42.684;23.260;2024-02-28T14:27:56;16.63;;;8.97;;
12792;SDS011;6460;42.684;23.260;2024-02-28T14:30:24;11.80;;;8.33;;
12792;SDS011;6460;42.684;23.260;2024-02-28T14:32:51;12.63;;;8.10;;
12792;SDS011;6460;42.684;23.260;2024-02-28T14:35:19;13.03;;;7.63;;
12792;SDS011;6460;42.684;23.260;2024-02-28T14:37:46;14.47;;;7.73;;
12792;SDS011;6460;42.684;23.260;2024-02-28T14:40:15;14.30;;;7.77;;